Time;durP1;ratioP1;P1;durP2;ratioP2;P2;SDS_P1;SDS_P2;PMS_P1;PMS_P2;Temp;Humidity;BMP_temperature;BMP_pressure;BME280_temperature;BME280_humidity;BME280_pressure;Samples;Min_cycle;Max_cycle;Signal;HPM_P1;HPM_P2
2023/08/15 00:00:21;;;;;;;10.17;4.10;;;;;;;;;;5052236;28;20500;-81
2023/08/15 00:02:47;;;;;;;8.70;4.47;;;;;;;;;;5049740;28;20531;-82
2023/08/15 00:05:13;;;;;;;4.10;3.40;;;;;;;;;;5041210;28;20496;-81
2023/08/15 00:07:39;;;;;;;7.67;4.00;;;;;;;;;;5032011;28;20445;-82
2023/08/15 00:10:05;;;;;;;5.70;4.57;;;;;;;;;;5032345;28;20405;-82
2023/08/15 00:12:31;;;;;;;7.77;4.30;;;;;;;;;;5032300;28;20414;-82
2023/08/15 00:14:57;;;;;;;5.50;4.17;;;;;;;;;;5032168;28;20902;-81
2023/08/15 00:17:23;;;;;;;4.10;2.80;;;;;;;;;;5031082;28;20236;-82
2023/08/15 00:19:49;;;;;;;5.50;3.40;;;;;;;;;;5051322;28;20177;-81
2023/08/15 00:22:17;;;;;;;6.27;3.70;;;;;;;;;;5064608;28;21039;-81
2023/08/15 00:24:43;;;;;;;6.13;4.27;;;;;;;;;;5046926;28;20177;-82
2023/08/15 00:27:09;;;;;;;11.23;6.70;;;;;;;;;;5050212;28;20896;-81
2023/08/15 00:29:35;;;;;;;6.20;3.80;;;;;;;;;;5050913;28;20178;-82
2023/08/15 00:32:01;;;;;;;7.27;3.90;;;;;;;;;;5045754;28;20181;-82
2023/08/15 00:34:27;;;;;;;7.30;4.00;;;;;;;;;;5033671;28;20432;-82
2023/08/15 00:36:53;;;;;;;5.80;4.27;;;;;;;;;;5035217;28;20421;-82
2023/08/15 00:39:18;;;;;;;7.70;5.87;;;;;;;;;;5035896;28;20181;-81
2023/08/15 00:41:45;;;;;;;7.23;4.70;;;;;;;;;;5035899;28;20846;-82
2023/08/15 00:44:10;;;;;;;6.57;4.80;;;;;;;;;;5034613;28;20176;-82
2023/08/15 00:46:38;;;;;;;9.90;4.53;;;;;;;;;;5035857;28;20787;-82
2023/08/15 00:49:04;;;;;;;5.13;4.50;;;;;;;;;;5036185;28;21066;-81
2023/08/15 00:51:30;;;;;;;8.70;5.20;;;;;;;;;;5047329;28;20443;-81
2023/08/15 00:53:56;;;;;;;8.50;5.33;;;;;;;;;;5054182;28;20424;-82
2023/08/15 00:56:22;;;;;;;8.70;4.40;;;;;;;;;;5045443;28;20510;-82
2023/08/15 00:58:48;;;;;;;7.27;4.33;;;;;;;;;;5041300;28;20442;-84
2023/08/15 01:01:16;;;;;;;5.80;4.20;;;;;;;;;;5050648;28;20930;-83
2023/08/15 01:03:43;;;;;;;6.57;5.37;;;;;;;;;;5055058;28;20452;-85
2023/08/15 01:06:09;;;;;;;5.43;4.27;;;;;;;;;;5053894;28;20416;-85
2023/08/15 01:08:35;;;;;;;10.40;6.17;;;;;;;;;;5056699;28;20423;-86
2023/08/15 01:11:01;;;;;;;9.83;6.70;;;;;;;;;;5073830;28;20477;-88
2023/08/15 01:13:59;;;;;;;7.00;6.30;;;;;;;;;;5075420;28;20482;-87
2023/08/15 01:16:28;;;;;;;10.63;6.37;;;;;;;;;;5051563;28;20475;-87
2023/08/15 01:19:12;;;;;;;8.37;6.80;;;;;;;;;;5073974;28;20431;-87
2023/08/15 01:21:41;;;;;;;6.30;5.20;;;;;;;;;;5073451;28;20430;-86
2023/08/15 01:24:07;;;;;;;9.73;5.73;;;;;;;;;;5074007;28;20509;-87
2023/08/15 01:26:33;;;;;;;8.27;5.67;;;;;;;;;;5073818;28;20503;-86
2023/08/15 01:28:59;;;;;;;8.60;5.90;;;;;;;;;;5074616;28;20534;-86
2023/08/15 01:31:28;;;;;;;6.03;5.10;;;;;;;;;;5073417;28;20267;-85
2023/08/15 01:34:13;;;;;;;8.70;5.13;;;;;;;;;;5075264;28;20196;-87
2023/08/15 01:36:44;;;;;;;6.23;4.53;;;;;;;;;;5073069;28;20475;-87
2023/08/15 01:39:11;;;;;;;8.17;5.83;;;;;;;;;;5063104;28;20453;-90
2023/08/15 01:41:39;;;;;;;8.80;5.87;;;;;;;;;;5047207;28;20424;-87
2023/08/15 01:44:07;;;;;;;6.33;5.20;;;;;;;;;;5052081;28;20732;-89
2023/08/15 01:46:33;;;;;;;10.33;7.00;;;;;;;;;;5052138;28;20417;-88
2023/08/15 01:48:59;;;;;;;8.53;6.57;;;;;;;;;;5053135;28;20830;-87
2023/08/15 01:51:25;;;;;;;10.40;7.67;;;;;;;;;;5053857;28;20506;-89
2023/08/15 01:53:51;;;;;;;8.87;6.93;;;;;;;;;;5054121;28;20403;-89
2023/08/15 01:56:17;;;;;;;8.87;6.47;;;;;;;;;;5052849;28;20517;-89
2023/08/15 01:58:43;;;;;;;8.87;7.10;;;;;;;;;;5053929;28;20406;-88
2023/08/15 02:01:09;;;;;;;9.63;8.20;;;;;;;;;;5052726;28;20177;-87
2023/08/15 02:03:35;;;;;;;9.10;7.30;;;;;;;;;;5053713;28;20217;-86
2023/08/15 02:06:01;;;;;;;11.47;7.83;;;;;;;;;;5053520;28;20462;-88
2023/08/15 02:08:27;;;;;;;9.10;7.70;;;;;;;;;;5053815;28;20761;-88
2023/08/15 02:10:53;;;;;;;10.43;7.37;;;;;;;;;;5052558;28;20444;-87
2023/08/15 02:13:19;;;;;;;10.43;7.93;;;;;;;;;;5053675;28;20268;-88
2023/08/15 02:15:45;;;;;;;9.40;6.57;;;;;;;;;;5052311;28;20533;-86
2023/08/15 02:18:11;;;;;;;9.07;7.83;;;;;;;;;;5053605;28;20435;-90
2023/08/15 02:20:37;;;;;;;9.57;7.50;;;;;;;;;;5053727;28;20482;-86
2023/08/15 02:23:03;;;;;;;9.80;7.00;;;;;;;;;;5053277;28;20407;-88
2023/08/15 02:25:29;;;;;;;11.13;7.67;;;;;;;;;;5052170;28;20473;-88
2023/08/15 02:27:55;;;;;;;7.80;6.27;;;;;;;;;;5052248;28;20800;-87
2023/08/15 02:30:21;;;;;;;8.93;5.77;;;;;;;;;;5053359;28;20440;-89
2023/08/15 02:32:47;;;;;;;8.87;7.97;;;;;;;;;;5051979;28;20706;-87
2023/08/15 02:35:13;;;;;;;7.73;6.87;;;;;;;;;;5051990;28;20281;-89
2023/08/15 02:37:39;;;;;;;7.70;6.57;;;;;;;;;;5052953;28;20252;-88
2023/08/15 02:40:06;;;;;;;7.23;6.53;;;;;;;;;;5053589;28;20881;-88
2023/08/15 02:42:32;;;;;;;11.30;8.60;;;;;;;;;;5053475;28;20419;-87
2023/08/15 02:44:58;;;;;;;8.03;7.20;;;;;;;;;;5053394;28;20452;-87
2023/08/15 02:47:24;;;;;;;8.40;7.60;;;;;;;;;;5052250;28;20951;-87
2023/08/15 02:49:50;;;;;;;11.97;7.43;;;;;;;;;;5053443;28;20249;-87
2023/08/15 02:52:16;;;;;;;10.20;8.80;;;;;;;;;;5051732;28;20173;-87
2023/08/15 02:54:42;;;;;;;12.20;8.90;;;;;;;;;;5053324;28;20203;-88
2023/08/15 02:57:07;;;;;;;11.90;8.40;;;;;;;;;;5051955;28;20189;-88
2023/08/15 02:59:33;;;;;;;9.93;8.93;;;;;;;;;;5052322;28;20419;-87
2023/08/15 03:01:59;;;;;;;9.90;8.20;;;;;;;;;;5053047;28;20225;-88
2023/08/15 03:04:25;;;;;;;9.83;8.90;;;;;;;;;;5053227;28;20170;-88
2023/08/15 03:06:51;;;;;;;10.80;8.70;;;;;;;;;;5052869;28;20400;-88
2023/08/15 03:09:17;;;;;;;12.53;8.50;;;;;;;;;;5051788;28;20653;-89
2023/08/15 03:11:43;;;;;;;13.33;9.60;;;;;;;;;;5053119;28;20201;-88
2023/08/15 03:14:10;;;;;;;12.33;8.80;;;;;;;;;;5053034;28;20746;-88
2023/08/15 03:16:36;;;;;;;9.70;7.77;;;;;;;;;;5052993;28;20471;-89
2023/08/15 03:19:02;;;;;;;11.00;8.87;;;;;;;;;;5053118;28;20403;-88
2023/08/15 03:21:28;;;;;;;11.63;9.40;;;;;;;;;;5052585;28;20536;-89
2023/08/15 03:23:54;;;;;;;11.27;9.43;;;;;;;;;;5051840;28;20494;-88
2023/08/15 03:26:20;;;;;;;10.03;8.70;;;;;;;;;;5052858;28;20419;-89
2023/08/15 03:28:45;;;;;;;10.77;8.63;;;;;;;;;;5053360;28;20412;-86
2023/08/15 03:31:11;;;;;;;11.13;9.30;;;;;;;;;;5051506;28;20178;-87
2023/08/15 03:33:37;;;;;;;7.97;7.27;;;;;;;;;;5052797;28;20447;-86
2023/08/15 03:36:04;;;;;;;13.43;8.37;;;;;;;;;;5052387;28;20477;-87
2023/08/15 03:38:29;;;;;;;9.53;8.40;;;;;;;;;;5052741;28;20411;-86
2023/08/15 03:41:02;;;;;;;11.10;8.40;;;;;;;;;;5052779;28;20412;-86
2023/08/15 03:43:29;;;;;;;8.07;7.37;;;;;;;;;;5052817;28;20170;-86
2023/08/15 03:45:55;;;;;;;11.10;8.07;;;;;;;;;;5052687;28;20853;-86
2023/08/15 03:48:21;;;;;;;10.17;9.27;;;;;;;;;;5051354;28;20562;-85
2023/08/15 03:50:47;;;;;;;11.33;7.93;;;;;;;;;;5051043;28;20184;-86
2023/08/15 03:53:12;;;;;;;11.23;8.60;;;;;;;;;;5052606;28;20249;-86
2023/08/15 03:55:39;;;;;;;8.57;7.30;;;;;;;;;;5052530;28;20479;-85
2023/08/15 03:58:04;;;;;;;7.80;7.00;;;;;;;;;;5052615;28;20169;-86
2023/08/15 04:00:31;;;;;;;10.67;7.60;;;;;;;;;;5052588;28;20790;-86
2023/08/15 04:02:57;;;;;;;8.93;7.80;;;;;;;;;;5052413;28;20274;-86
2023/08/15 04:05:24;;;;;;;9.70;8.80;;;;;;;;;;5052184;28;20799;-86
2023/08/15 04:07:50;;;;;;;10.33;8.73;;;;;;;;;;5052531;28;20169;-86
2023/08/15 04:10:16;;;;;;;11.13;8.70;;;;;;;;;;5054200;28;20499;-86
2023/08/15 04:12:44;;;;;;;10.97;9.47;;;;;;;;;;5055450;28;20638;-86
2023/08/15 04:15:10;;;;;;;9.80;8.80;;;;;;;;;;5056214;28;20871;-86
2023/08/15 04:17:36;;;;;;;10.30;9.37;;;;;;;;;;5056312;28;20414;-88
2023/08/15 04:20:03;;;;;;;10.20;9.00;;;;;;;;;;5056219;28;20404;-86
2023/08/15 04:22:29;;;;;;;9.43;8.23;;;;;;;;;;5055761;28;20420;-86
2023/08/15 04:24:55;;;;;;;10.70;8.47;;;;;;;;;;5054840;28;20420;-86
2023/08/15 04:27:21;;;;;;;10.33;7.67;;;;;;;;;;5054732;28;20415;-86
2023/08/15 04:29:47;;;;;;;12.03;9.10;;;;;;;;;;5056057;28;20232;-85
2023/08/15 04:32:13;;;;;;;10.07;9.10;;;;;;;;;;5054754;28;20809;-85
2023/08/15 04:34:39;;;;;;;9.37;8.37;;;;;;;;;;5055913;28;20235;-86
2023/08/15 04:37:05;;;;;;;10.63;9.63;;;;;;;;;;5055626;28;20238;-87
2023/08/15 04:39:31;;;;;;;9.93;8.90;;;;;;;;;;5055797;28;20408;-87
2023/08/15 04:41:57;;;;;;;9.30;8.37;;;;;;;;;;5055818;28;20193;-87
2023/08/15 04:44:23;;;;;;;11.00;9.97;;;;;;;;;;5054562;28;20485;-87
2023/08/15 04:46:49;;;;;;;11.80;9.30;;;;;;;;;;5055758;28;20174;-88
2023/08/15 04:49:15;;;;;;;10.03;9.00;;;;;;;;;;5054445;28;20174;-87
2023/08/15 04:51:41;;;;;;;9.67;8.60;;;;;;;;;;5055269;28;20419;-87
2023/08/15 04:54:07;;;;;;;11.03;9.60;;;;;;;;;;5055615;28;20439;-86
2023/08/15 04:56:32;;;;;;;11.03;9.90;;;;;;;;;;5054230;28;20225;-87
2023/08/15 04:58:58;;;;;;;12.70;10.10;;;;;;;;;;5054204;28;20177;-87
2023/08/15 05:01:24;;;;;;;10.37;9.07;;;;;;;;;;5054287;28;20185;-86
2023/08/15 05:03:50;;;;;;;11.10;10.00;;;;;;;;;;5054059;28;20225;-88
2023/08/15 05:06:16;;;;;;;9.60;8.70;;;;;;;;;;5053730;28;20939;-87
2023/08/15 05:08:42;;;;;;;13.13;9.93;;;;;;;;;;5054124;28;20187;-86
2023/08/15 05:11:08;;;;;;;13.63;8.70;;;;;;;;;;5055276;28;20450;-88
2023/08/15 05:13:34;;;;;;;10.87;9.73;;;;;;;;;;5055528;28;20443;-88
2023/08/15 05:16:00;;;;;;;13.17;9.60;;;;;;;;;;5055385;28;20858;-88
2023/08/15 05:18:26;;;;;;;10.40;8.80;;;;;;;;;;5055532;28;20469;-90
2023/08/15 05:20:52;;;;;;;9.57;8.67;;;;;;;;;;5054834;28;20771;-88
2023/08/15 05:23:18;;;;;;;10.63;8.47;;;;;;;;;;5055571;28;20180;-88
2023/08/15 05:25:44;;;;;;;11.23;9.27;;;;;;;;;;5055374;28;20908;-89
2023/08/15 05:28:13;;;;;;;11.97;9.20;;;;;;;;;;5055258;28;20467;-88
2023/08/15 05:30:39;;;;;;;11.73;9.27;;;;;;;;;;5055050;28;20419;-88
2023/08/15 05:33:05;;;;;;;9.87;8.87;;;;;;;;;;5053603;28;20416;-88
2023/08/15 05:35:31;;;;;;;9.57;8.43;;;;;;;;;;5054432;28;20824;-89
2023/08/15 05:37:58;;;;;;;10.57;9.53;;;;;;;;;;5054765;28;20416;-88
2023/08/15 05:40:25;;;;;;;8.90;8.00;;;;;;;;;;5053530;28;20499;-88
2023/08/15 05:42:51;;;;;;;9.67;8.80;;;;;;;;;;5053505;28;20412;-88
2023/08/15 05:45:17;;;;;;;11.80;8.27;;;;;;;;;;5054735;28;20916;-88
2023/08/15 05:47:43;;;;;;;9.70;7.83;;;;;;;;;;5054530;28;20175;-87
2023/08/15 05:50:09;;;;;;;8.70;7.80;;;;;;;;;;5054260;28;20478;-88
2023/08/15 05:52:35;;;;;;;8.23;7.33;;;;;;;;;;5053342;28;20545;-87
2023/08/15 05:55:01;;;;;;;9.17;7.20;;;;;;;;;;5054383;28;20792;-88
2023/08/15 05:57:27;;;;;;;7.03;6.33;;;;;;;;;;5053209;28;20424;-90
2023/08/15 05:59:53;;;;;;;7.13;6.40;;;;;;;;;;5054370;28;20408;-89
2023/08/15 06:02:19;;;;;;;5.80;5.17;;;;;;;;;;5054259;28;20229;-88
2023/08/15 06:04:45;;;;;;;7.43;6.10;;;;;;;;;;5054246;28;20750;-89
2023/08/15 06:07:14;;;;;;;6.77;5.60;;;;;;;;;;5052695;28;20420;-89
2023/08/15 06:09:40;;;;;;;11.87;5.90;;;;;;;;;;5054352;28;20461;-89
2023/08/15 06:12:06;;;;;;;8.70;6.30;;;;;;;;;;5054451;28;20896;-88
2023/08/15 06:14:32;;;;;;;5.73;5.23;;;;;;;;;;5054024;28;20181;-87
2023/08/15 06:16:58;;;;;;;7.23;5.37;;;;;;;;;;5053945;28;20428;-89
2023/08/15 06:19:24;;;;;;;7.90;6.00;;;;;;;;;;5053998;28;20408;-89
2023/08/15 06:21:50;;;;;;;6.53;5.40;;;;;;;;;;5053602;28;20905;-87
2023/08/15 06:24:16;;;;;;;6.43;5.67;;;;;;;;;;5053915;28;20186;-87
2023/08/15 06:26:42;;;;;;;5.30;4.30;;;;;;;;;;5053870;28;20201;-87
2023/08/15 06:29:08;;;;;;;7.63;5.23;;;;;;;;;;5053805;28;20169;-87
2023/08/15 06:31:34;;;;;;;7.67;5.83;;;;;;;;;;5053699;28;20512;-86
2023/08/15 06:34:01;;;;;;;7.17;5.50;;;;;;;;;;5053481;28;20203;-86
2023/08/15 06:36:27;;;;;;;7.20;5.20;;;;;;;;;;5053216;28;21026;-86
2023/08/15 06:38:53;;;;;;;7.77;5.90;;;;;;;;;;5053605;28;20487;-86
2023/08/15 06:41:19;;;;;;;6.33;5.73;;;;;;;;;;5053629;28;20884;-86
2023/08/15 06:43:46;;;;;;;8.77;5.67;;;;;;;;;;5053503;28;20401;-87
2023/08/15 06:46:12;;;;;;;5.73;5.07;;;;;;;;;;5053488;28;20166;-86
2023/08/15 06:48:38;;;;;;;6.47;5.80;;;;;;;;;;5053439;28;20404;-87
2023/08/15 06:51:04;;;;;;;5.73;5.07;;;;;;;;;;5051762;28;20447;-87
2023/08/15 06:53:31;;;;;;;8.83;5.60;;;;;;;;;;5053308;28;20871;-87
2023/08/15 06:55:57;;;;;;;8.13;5.77;;;;;;;;;;5053315;28;20609;-84
2023/08/15 06:58:23;;;;;;;6.13;4.30;;;;;;;;;;5053316;28;20871;-83
2023/08/15 07:00:49;;;;;;;5.33;4.10;;;;;;;;;;5053253;28;20503;-82
2023/08/15 07:03:15;;;;;;;5.27;4.30;;;;;;;;;;5053061;28;20586;-84
2023/08/15 07:05:42;;;;;;;5.53;4.13;;;;;;;;;;5052924;28;20419;-85
2023/08/15 07:08:08;;;;;;;11.03;4.57;;;;;;;;;;5053248;28;20419;-87
2023/08/15 07:10:37;;;;;;;7.50;5.23;;;;;;;;;;5052229;28;20482;-84
2023/08/15 07:13:03;;;;;;;6.93;4.60;;;;;;;;;;5053026;28;20412;-85
2023/08/15 07:15:29;;;;;;;5.13;4.17;;;;;;;;;;5052902;28;20472;-88
2023/08/15 07:17:55;;;;;;;5.87;3.93;;;;;;;;;;5052938;28;20418;-91
2023/08/15 07:20:21;;;;;;;4.80;4.40;;;;;;;;;;5053090;28;20776;-85
2023/08/15 07:22:47;;;;;;;4.50;4.10;;;;;;;;;;5052841;28;20168;-85
2023/08/15 07:25:13;;;;;;;7.17;4.07;;;;;;;;;;5053218;28;20416;-85
2023/08/15 07:27:39;;;;;;;5.30;3.80;;;;;;;;;;5051668;28;20469;-85
2023/08/15 07:30:06;;;;;;;5.23;4.37;;;;;;;;;;5052860;28;20510;-87
2023/08/15 07:32:32;;;;;;;5.43;4.60;;;;;;;;;;5052822;28;20977;-85
2023/08/15 07:34:58;;;;;;;5.47;4.30;;;;;;;;;;5051184;28;20466;-86
2023/08/15 07:37:24;;;;;;;6.80;3.83;;;;;;;;;;5052934;28;20411;-89
2023/08/15 07:39:56;;;;;;;4.90;4.50;;;;;;;;;;5053080;28;20487;-87
2023/08/15 07:42:22;;;;;;;5.73;4.43;;;;;;;;;;5052920;28;20188;-87
2023/08/15 07:44:48;;;;;;;5.17;4.17;;;;;;;;;;5053851;28;20979;-86
2023/08/15 07:47:13;;;;;;;6.40;4.53;;;;;;;;;;5056941;28;20259;-88
2023/08/15 07:49:39;;;;;;;9.37;4.70;;;;;;;;;;5056930;28;20255;-87
2023/08/15 07:52:05;;;;;;;10.47;5.30;;;;;;;;;;5056576;28;20186;-88
2023/08/15 07:54:31;;;;;;;7.70;4.87;;;;;;;;;;5056709;28;20173;-87
2023/08/15 07:56:57;;;;;;;5.43;4.53;;;;;;;;;;5055520;28;20421;-88
2023/08/15 07:59:23;;;;;;;5.23;4.30;;;;;;;;;;5055462;28;20224;-88
2023/08/15 08:01:49;;;;;;;5.23;4.43;;;;;;;;;;5056467;28;20414;-87
2023/08/15 08:04:18;;;;;;;7.80;6.13;;;;;;;;;;5056693;28;20410;-87
2023/08/15 08:06:44;;;;;;;6.13;5.53;;;;;;;;;;5054881;28;20423;-87
2023/08/15 08:09:10;;;;;;;8.10;5.40;;;;;;;;;;5056387;28;20416;-87
2023/08/15 08:11:36;;;;;;;5.83;5.10;;;;;;;;;;5055171;28;20177;-87
2023/08/15 08:14:03;;;;;;;5.67;4.50;;;;;;;;;;5055163;28;20421;-88
2023/08/15 08:16:29;;;;;;;6.00;5.10;;;;;;;;;;5056101;28;21017;-87
2023/08/15 08:18:55;;;;;;;6.83;5.00;;;;;;;;;;5055875;28;20500;-87
2023/08/15 08:21:22;;;;;;;5.90;5.30;;;;;;;;;;5050598;28;20518;-86
2023/08/15 08:23:47;;;;;;;6.93;4.93;;;;;;;;;;5053317;28;20626;-89
2023/08/15 08:26:13;;;;;;;6.30;5.57;;;;;;;;;;5055559;28;20477;-89
2023/08/15 08:28:39;;;;;;;4.97;4.43;;;;;;;;;;5055388;28;20415;-87
2023/08/15 08:31:06;;;;;;;5.97;4.90;;;;;;;;;;5055829;28;20903;-87
2023/08/15 08:33:32;;;;;;;6.00;5.40;;;;;;;;;;5055729;28;20430;-87
2023/08/15 08:35:58;;;;;;;7.70;5.83;;;;;;;;;;5055250;28;20966;-86
2023/08/15 08:38:25;;;;;;;7.50;5.37;;;;;;;;;;5055706;28;20206;-87
2023/08/15 08:40:51;;;;;;;6.50;5.40;;;;;;;;;;5054502;28;20443;-87
2023/08/15 08:43:17;;;;;;;5.10;4.30;;;;;;;;;;5055553;28;20856;-87
2023/08/15 08:45:50;;;;;;;6.63;5.70;;;;;;;;;;5065242;28;20419;-87
2023/08/15 08:48:17;;;;;;;9.23;5.37;;;;;;;;;;5057953;28;20399;-87
2023/08/15 08:50:44;;;;;;;5.13;4.63;;;;;;;;;;5053118;28;20432;-88
2023/08/15 08:53:10;;;;;;;6.40;4.90;;;;;;;;;;5055574;28;20461;-87
2023/08/15 08:55:36;;;;;;;5.10;4.33;;;;;;;;;;5055515;28;20464;-87
2023/08/15 08:58:03;;;;;;;6.47;5.00;;;;;;;;;;5055704;28;20461;-87
2023/08/15 09:00:33;;;;;;;7.93;4.60;;;;;;;;;;5055565;28;20415;-88
2023/08/15 09:02:59;;;;;;;7.63;5.17;;;;;;;;;;5055359;28;21037;-88
2023/08/15 09:05:26;;;;;;;5.70;4.63;;;;;;;;;;5054381;28;20432;-87
2023/08/15 09:07:52;;;;;;;6.60;5.50;;;;;;;;;;5055324;28;20169;-88
2023/08/15 09:10:18;;;;;;;5.70;4.67;;;;;;;;;;5053118;28;20411;-88
2023/08/15 09:12:46;;;;;;;5.77;4.57;;;;;;;;;;5053771;28;20416;-87
2023/08/15 09:15:12;;;;;;;6.43;5.80;;;;;;;;;;5054739;28;20819;-87
2023/08/15 09:17:38;;;;;;;5.70;4.93;;;;;;;;;;5054804;28;20503;-90
2023/08/15 09:20:14;;;;;;;6.83;4.63;;;;;;;;;;5053587;28;20184;-88
2023/08/15 09:22:50;;;;;;;5.63;4.37;;;;;;;;;;5055093;28;21003;-89
2023/08/15 09:25:19;;;;;;;6.27;5.00;;;;;;;;;;5055131;28;20421;-88
2023/08/15 09:27:45;;;;;;;8.47;5.30;;;;;;;;;;5054999;28;20423;-88
2023/08/15 09:30:12;;;;;;;5.43;4.80;;;;;;;;;;5055193;28;20416;-88
2023/08/15 09:32:39;;;;;;;6.50;5.53;;;;;;;;;;5054970;28;20411;-88
2023/08/15 09:35:06;;;;;;;5.43;4.90;;;;;;;;;;5054693;28;20837;-88
2023/08/15 09:37:31;;;;;;;5.77;5.20;;;;;;;;;;5053711;28;20435;-89
2023/08/15 09:39:58;;;;;;;6.93;5.70;;;;;;;;;;5054941;28;20412;-89
2023/08/15 09:42:24;;;;;;;6.37;4.83;;;;;;;;;;5053714;28;20622;-90
2023/08/15 09:44:50;;;;;;;5.90;5.30;;;;;;;;;;5054943;28;20411;-89
2023/08/15 09:47:19;;;;;;;6.10;5.50;;;;;;;;;;5053545;28;20919;-89
2023/08/15 09:49:45;;;;;;;7.50;4.70;;;;;;;;;;5053112;28;20909;-88
2023/08/15 09:52:11;;;;;;;6.37;4.53;;;;;;;;;;5054650;28;20893;-89
2023/08/15 09:54:37;;;;;;;6.33;4.47;;;;;;;;;;5054531;28;20479;-88
2023/08/15 09:57:03;;;;;;;5.67;3.93;;;;;;;;;;5053389;28;20431;-90
2023/08/15 09:59:29;;;;;;;5.07;3.70;;;;;;;;;;5053304;28;20420;-89
2023/08/15 10:01:56;;;;;;;4.10;2.63;;;;;;;;;;5052904;28;20472;-89
2023/08/15 10:04:23;;;;;;;4.60;3.70;;;;;;;;;;5054036;28;20169;-89
2023/08/15 10:06:50;;;;;;;5.97;4.00;;;;;;;;;;5054168;28;20418;-84
2023/08/15 10:09:17;;;;;;;3.70;3.00;;;;;;;;;;5053946;28;20466;-88
2023/08/15 10:11:44;;;;;;;5.03;2.57;;;;;;;;;;5052900;28;20427;-85
2023/08/15 10:14:12;;;;;;;4.90;2.60;;;;;;;;;;5054139;28;20500;-86
2023/08/15 10:16:38;;;;;;;4.50;2.63;;;;;;;;;;5052640;28;20518;-84
2023/08/15 10:19:04;;;;;;;5.07;2.77;;;;;;;;;;5054164;28;20499;-84
2023/08/15 10:21:46;;;;;;;4.30;3.20;;;;;;;;;;5053679;28;20886;-85
2023/08/15 10:24:12;;;;;;;7.13;3.07;;;;;;;;;;5053990;28;20630;-85
2023/08/15 10:26:39;;;;;;;5.43;3.33;;;;;;;;;;5053888;28;20500;-85
2023/08/15 10:29:05;;;;;;;4.50;2.87;;;;;;;;;;5053820;28;20177;-85
2023/08/15 10:31:35;;;;;;;4.80;3.00;;;;;;;;;;5053831;28;20408;-86
2023/08/15 10:34:02;;;;;;;4.30;2.80;;;;;;;;;;5052486;28;20626;-84
2023/08/15 10:36:28;;;;;;;4.97;2.80;;;;;;;;;;5053109;28;20854;-85
2023/08/15 10:38:54;;;;;;;6.03;3.00;;;;;;;;;;5053645;28;20491;-85
2023/08/15 10:41:20;;;;;;;4.03;2.67;;;;;;;;;;5053773;28;20201;-85
2023/08/15 10:43:50;;;;;;;3.50;2.13;;;;;;;;;;5052423;28;20178;-85
2023/08/15 10:46:18;;;;;;;3.03;2.70;;;;;;;;;;5053374;28;20719;-84
2023/08/15 10:48:50;;;;;;;3.70;2.20;;;;;;;;;;5053466;28;20420;-83
2023/08/15 10:51:17;;;;;;;3.20;2.60;;;;;;;;;;5053092;28;20507;-84
2023/08/15 10:53:43;;;;;;;3.63;2.90;;;;;;;;;;5052196;28;20856;-84
2023/08/15 10:56:10;;;;;;;4.00;2.93;;;;;;;;;;5051939;28;20583;-84
2023/08/15 10:58:37;;;;;;;5.47;3.17;;;;;;;;;;5041149;28;20456;-86
2023/08/15 11:01:03;;;;;;;2.87;2.50;;;;;;;;;;5049808;28;20928;-85
2023/08/15 11:03:29;;;;;;;7.63;2.10;;;;;;;;;;5053098;28;20495;-86
2023/08/15 11:06:14;;;;;;;4.43;3.03;;;;;;;;;;5052889;28;20844;-84
2023/08/15 11:08:44;;;;;;;4.37;3.50;;;;;;;;;;5053251;28;20170;-84
2023/08/15 11:11:10;;;;;;;3.87;2.60;;;;;;;;;;5053217;28;20413;-83
2023/08/15 11:13:39;;;;;;;3.37;2.80;;;;;;;;;;5053122;28;20404;-84
2023/08/15 11:16:06;;;;;;;3.50;2.50;;;;;;;;;;5053217;28;20736;-87
2023/08/15 11:18:32;;;;;;;3.10;2.70;;;;;;;;;;5052878;28;20450;-91
2023/08/15 11:20:59;;;;;;;4.17;3.77;;;;;;;;;;5047399;28;20437;-84
2023/08/15 11:23:37;;;;;;;3.40;3.10;;;;;;;;;;5047706;28;20464;-87
2023/08/15 11:26:04;;;;;;;3.10;2.77;;;;;;;;;;5031815;28;20421;-82
2023/08/15 11:28:30;;;;;;;3.87;3.20;;;;;;;;;;5041224;28;20750;-87
2023/08/15 11:30:57;;;;;;;3.90;3.60;;;;;;;;;;5051729;28;20474;-79
2023/08/15 11:33:26;;;;;;;3.90;3.33;;;;;;;;;;5052931;28;20764;-82
2023/08/15 11:35:52;;;;;;;4.40;3.43;;;;;;;;;;5052463;28;20471;-83
2023/08/15 11:38:19;;;;;;;2.83;2.63;;;;;;;;;;5051002;28;20425;-85
2023/08/15 11:40:45;;;;;;;4.83;3.13;;;;;;;;;;5057044;28;20433;-84
2023/08/15 11:43:11;;;;;;;3.80;3.23;;;;;;;;;;5033016;28;20886;-85
2023/08/15 11:45:39;;;;;;;2.80;2.43;;;;;;;;;;5035714;28;20439;-87
2023/08/15 11:48:07;;;;;;;3.83;3.30;;;;;;;;;;5040214;28;20415;-84
2023/08/15 11:50:34;;;;;;;5.63;2.80;;;;;;;;;;5031308;28;20929;-87
2023/08/15 11:53:00;;;;;;;2.73;2.53;;;;;;;;;;5031540;28;20763;-83
2023/08/15 11:55:26;;;;;;;4.80;2.90;;;;;;;;;;5032108;28;20476;-82
2023/08/15 11:57:52;;;;;;;3.43;2.80;;;;;;;;;;5035524;28;20397;-81
2023/08/15 12:00:19;;;;;;;5.23;2.40;;;;;;;;;;5052707;28;20431;-81
2023/08/15 12:02:46;;;;;;;3.10;2.20;;;;;;;;;;5047905;28;20770;-83
2023/08/15 12:05:13;;;;;;;3.27;2.97;;;;;;;;;;5052218;28;21085;-83
2023/08/15 12:07:39;;;;;;;3.83;2.43;;;;;;;;;;5052604;28;20872;-82
2023/08/15 12:10:06;;;;;;;3.47;3.00;;;;;;;;;;5052516;28;20416;-84
2023/08/15 12:12:37;;;;;;;3.43;3.13;;;;;;;;;;5047476;28;20408;-82
2023/08/15 12:15:03;;;;;;;4.13;2.60;;;;;;;;;;5032524;28;20461;-84
2023/08/15 12:17:29;;;;;;;3.87;3.07;;;;;;;;;;5031195;28;20498;-82
2023/08/15 12:19:55;;;;;;;5.40;3.67;;;;;;;;;;5032147;28;20409;-82
2023/08/15 12:22:21;;;;;;;3.70;3.40;;;;;;;;;;5032487;28;20421;-83
2023/08/15 12:24:47;;;;;;;4.97;3.17;;;;;;;;;;5032586;28;20175;-87
2023/08/15 12:27:13;;;;;;;4.50;3.97;;;;;;;;;;5032442;28;20627;-83
2023/08/15 12:29:39;;;;;;;4.73;4.10;;;;;;;;;;5044296;28;20186;-83
2023/08/15 12:32:05;;;;;;;4.90;4.47;;;;;;;;;;5048743;28;20466;-86
2023/08/15 12:34:31;;;;;;;5.30;4.00;;;;;;;;;;5044048;28;20415;-84
2023/08/15 12:36:57;;;;;;;5.40;4.80;;;;;;;;;;5055079;28;20472;-84
2023/08/15 12:39:23;;;;;;;5.07;4.57;;;;;;;;;;5051561;28;20178;-85
2023/08/15 12:41:49;;;;;;;5.50;5.07;;;;;;;;;;5035912;28;20542;-84
2023/08/15 12:44:15;;;;;;;7.10;5.23;;;;;;;;;;5035985;28;20401;-85
2023/08/15 12:46:41;;;;;;;6.03;5.53;;;;;;;;;;5035827;28;20236;-84
2023/08/15 12:49:07;;;;;;;7.10;6.10;;;;;;;;;;5035428;28;20906;-85
2023/08/15 12:51:33;;;;;;;8.30;5.40;;;;;;;;;;5035867;28;20175;-84
2023/08/15 12:53:59;;;;;;;7.93;6.83;;;;;;;;;;5035810;28;20429;-85
2023/08/15 12:56:25;;;;;;;9.53;6.57;;;;;;;;;;5035716;28;20503;-85
2023/08/15 12:58:51;;;;;;;7.17;6.20;;;;;;;;;;5035665;28;20401;-85
2023/08/15 13:01:17;;;;;;;9.63;6.07;;;;;;;;;;5035651;28;20182;-84
2023/08/15 13:03:43;;;;;;;7.77;6.53;;;;;;;;;;5035493;28;20475;-85
2023/08/15 13:06:09;;;;;;;7.47;6.40;;;;;;;;;;5035243;28;20170;-85
2023/08/15 13:08:35;;;;;;;7.43;6.37;;;;;;;;;;5034212;28;20754;-86
2023/08/15 13:11:01;;;;;;;9.73;6.53;;;;;;;;;;5034272;28;20909;-84
2023/08/15 13:13:27;;;;;;;8.10;5.63;;;;;;;;;;5035388;28;20420;-86
2023/08/15 13:15:53;;;;;;;8.20;5.70;;;;;;;;;;5035346;28;20296;-85
2023/08/15 13:18:18;;;;;;;7.40;5.40;;;;;;;;;;5035362;28;20170;-86
2023/08/15 13:20:44;;;;;;;5.93;5.23;;;;;;;;;;5035013;28;20185;-85
2023/08/15 13:23:10;;;;;;;5.50;5.00;;;;;;;;;;5035159;28;20194;-83
2023/08/15 13:25:36;;;;;;;4.77;3.97;;;;;;;;;;5035308;28;20178;-86
2023/08/15 13:28:02;;;;;;;6.73;4.60;;;;;;;;;;5035169;28;20186;-85
2023/08/15 13:30:28;;;;;;;7.33;3.63;;;;;;;;;;5035148;28;20179;-87
2023/08/15 13:32:54;;;;;;;2.93;2.63;;;;;;;;;;5033716;28;20269;-86
2023/08/15 13:35:20;;;;;;;5.80;3.40;;;;;;;;;;5034565;28;20221;-86
2023/08/15 13:37:46;;;;;;;4.13;3.23;;;;;;;;;;5034889;28;20545;-85
2023/08/15 13:40:12;;;;;;;5.50;3.10;;;;;;;;;;5033770;28;20179;-86
2023/08/15 13:42:39;;;;;;;6.10;3.60;;;;;;;;;;5033995;28;20424;-85
2023/08/15 13:45:05;;;;;;;5.00;3.87;;;;;;;;;;5034937;28;20185;-86
2023/08/15 13:47:31;;;;;;;5.90;3.57;;;;;;;;;;5034835;28;20409;-86
2023/08/15 13:49:57;;;;;;;4.27;3.20;;;;;;;;;;5034679;28;20409;-84
2023/08/15 13:52:23;;;;;;;4.27;3.30;;;;;;;;;;5033557;28;20197;-84
2023/08/15 13:54:49;;;;;;;4.40;2.70;;;;;;;;;;5034598;28;20730;-84
2023/08/15 13:57:15;;;;;;;3.83;2.57;;;;;;;;;;5034716;28;20178;-86
2023/08/15 13:59:40;;;;;;;5.23;3.00;;;;;;;;;;5034593;28;20173;-86
2023/08/15 14:02:07;;;;;;;4.90;3.47;;;;;;;;;;5034400;28;20457;-87
2023/08/15 14:04:33;;;;;;;4.50;3.57;;;;;;;;;;5035602;28;20193;-86
2023/08/15 14:06:59;;;;;;;5.20;2.80;;;;;;;;;;5042927;28;20889;-85
2023/08/15 14:09:25;;;;;;;4.90;2.73;;;;;;;;;;5045040;28;20255;-86
2023/08/15 14:11:51;;;;;;;6.93;2.83;;;;;;;;;;5037779;28;20889;-84
2023/08/15 14:14:17;;;;;;;4.83;2.80;;;;;;;;;;5034395;28;20939;-84
2023/08/15 14:16:43;;;;;;;5.57;2.80;;;;;;;;;;5034178;28;20555;-85
2023/08/15 14:19:12;;;;;;;4.07;2.50;;;;;;;;;;5033881;28;20169;-85
2023/08/15 14:21:38;;;;;;;4.70;3.23;;;;;;;;;;5034222;28;20205;-85
2023/08/15 14:24:04;;;;;;;4.80;2.53;;;;;;;;;;5033860;28;20432;-86
2023/08/15 14:26:30;;;;;;;4.40;2.37;;;;;;;;;;5033908;28;20174;-85
2023/08/15 14:28:56;;;;;;;6.30;3.47;;;;;;;;;;5033938;28;20419;-84
2023/08/15 14:31:22;;;;;;;4.03;2.13;;;;;;;;;;5033745;28;20217;-85
2023/08/15 14:34:08;;;;;;;4.50;2.43;;;;;;;;;;5042831;28;20182;-85
2023/08/15 14:36:35;;;;;;;4.20;2.53;;;;;;;;;;5033124;28;20205;-85